North Prairie, WI (53153)

2:49 PM CST on February 06, 2016 (GMT -0600)
Spring Lake South Shore | | Change Station
CLOSE
Current Station
Personal Weather Station
Location: Mukwonago, WI
Elevation: 992 ft
Nearby Weather Stations

Elev 992 ft 42.91 °N, 88.37 °W | Updated 6 seconds ago

Overcast
Overcast
33.3 °F
Feels Like 33 °F
N
0.0
Wind Variable Wind from North
Gusts 0.0 mph

Today
High -- | Low -- °F
--% Chance of Precip.
Yesterday
High -- | Low -- °F
Precip. -- in
Pressure 30.13 in
Visibility 7.0 miles
Clouds Overcast 1300 ft
Windchill 33 °F
Dew Point 29 °F
Humidity 83%
Rainfall 0.00 in
Snow Depth Not available.
7:03 AM 5:12 PM
Waning Crescent, 4% visible
METAR KUES 062045Z 24013KT 7SM OVC013 M01/M04 A3013
Pressure 30.13 in
Visibility 7.0 miles
Clouds Overcast 1300 ft
Windchill 33 °F
Dew Point 29 °F
Humidity 83%
Rainfall 0.00 in
Snow Depth Not available.
7:03 AM 5:12 PM
Waning Crescent, 4% visible
METAR KUES 062045Z 24013KT 7SM OVC013 M01/M04 A3013

10-Day Weather Forecast

Almanac

Astronomy

Feb. 06, 2016 Rise Set
Actual Time
Civil Twilight
Nautical Twilight
Astronomical Twilight
Moon
Length of Visible Light
Length of Day
Tomorrow will be .
, % of the Moon is Illuminated

Today's Extremes

State Highs State Lows

Community

WunderPhotos

Upload Photos

1,891,046 photos uploaded!

WunderBlog® & News

Nearby

Air Quality

  Air Quality AQ Index Pollutant
Not available.

Snow Depth

Station Depth Elevation

Earthquake Activity

City Distance Mag. Time & Date
Minimum magnitude displayed is 2.5.

Coastal Water Temperatures

Place Temperature

Stations

Nearby Weather Stations

Station Location Temp. Windchill Dew Point Humidity Wind Precip. Elev Updated Type
                   

Watches & Warnings

There are currently no watches in effect.